sensor_id;sensor_type;location;lat;lon;timestamp;pressure;altitude;pressure_sealevel;temperature;humidity
16331;BME280;8275;48.206;16.340;2024-02-04T00:00:06;99733.38;;;13.68;46.79
16331;BME280;8275;48.206;16.340;2024-02-04T00:02:35;99743.03;;;13.71;47.04
16331;BME280;8275;48.206;16.340;2024-02-04T00:05:04;99730.38;;;13.70;47.12
16331;BME280;8275;48.206;16.340;2024-02-04T00:07:32;99726.50;;;13.71;47.01
16331;BME280;8275;48.206;16.340;2024-02-04T00:10:01;99732.00;;;13.71;46.96
16331;BME280;8275;48.206;16.340;2024-02-04T00:12:31;99729.25;;;13.71;46.94
16331;BME280;8275;48.206;16.340;2024-02-04T00:15:00;99743.03;;;13.71;46.84
16331;BME280;8275;48.206;16.340;2024-02-04T00:17:31;99735.03;;;13.69;47.00
16331;BME280;8275;48.206;16.340;2024-02-04T00:20:02;99730.59;;;13.68;47.36
16331;BME280;8275;48.206;16.340;2024-02-04T00:22:32;99736.94;;;13.69;47.19
16331;BME280;8275;48.206;16.340;2024-02-04T00:25:02;99724.28;;;13.68;47.21
16331;BME280;8275;48.206;16.340;2024-02-04T00:27:34;99726.22;;;13.67;47.27
16331;BME280;8275;48.206;16.340;2024-02-04T00:30:03;99731.72;;;13.67;47.28
16331;BME280;8275;48.206;16.340;2024-02-04T00:32:33;99718.75;;;13.68;47.39
16331;BME280;8275;48.206;16.340;2024-02-04T00:35:02;99727.03;;;13.68;47.60
16331;BME280;8275;48.206;16.340;2024-02-04T00:37:31;99724.03;;;13.69;47.60
16331;BME280;8275;48.206;16.340;2024-02-04T00:39:59;99720.44;;;13.69;47.59
16331;BME280;8275;48.206;16.340;2024-02-04T00:42:28;99714.94;;;13.69;47.69
16331;BME280;8275;48.206;16.340;2024-02-04T00:44:58;99723.19;;;13.69;47.47
16331;BME280;8275;48.206;16.340;2024-02-04T00:47:27;99725.16;;;13.73;47.56
16331;BME280;8275;48.206;16.340;2024-02-04T00:49:55;99727.63;;;13.75;47.49
16331;BME280;8275;48.206;16.340;2024-02-04T00:52:23;99727.09;;;13.78;47.55
16331;BME280;8275;48.206;16.340;2024-02-04T00:54:52;99704.78;;;13.79;47.64
16331;BME280;8275;48.206;16.340;2024-02-04T00:57:20;99716.38;;;13.81;47.64
16331;BME280;8275;48.206;16.340;2024-02-04T00:59:49;99709.50;;;13.84;47.52
16331;BME280;8275;48.206;16.340;2024-02-04T01:02:19;99701.53;;;13.87;47.47
16331;BME280;8275;48.206;16.340;2024-02-04T01:04:48;99706.53;;;13.90;47.57
16331;BME280;8275;48.206;16.340;2024-02-04T01:07:17;99706.53;;;13.95;47.92
16331;BME280;8275;48.206;16.340;2024-02-04T01:09:46;99703.53;;;13.97;48.52
16331;BME280;8275;48.206;16.340;2024-02-04T01:12:14;99725.28;;;13.98;48.30
16331;BME280;8275;48.206;16.340;2024-02-04T01:14:43;99715.94;;;13.99;48.65
16331;BME280;8275;48.206;16.340;2024-02-04T01:17:11;99713.44;;;13.98;48.82
16331;BME280;8275;48.206;16.340;2024-02-04T01:19:41;99728.56;;;13.95;49.81
16331;BME280;8275;48.206;16.340;2024-02-04T01:22:10;99737.38;;;13.92;49.91
16331;BME280;8275;48.206;16.340;2024-02-04T01:24:39;99725.22;;;13.88;50.04
16331;BME280;8275;48.206;16.340;2024-02-04T01:27:07;99711.44;;;13.83;49.88
16331;BME280;8275;48.206;16.340;2024-02-04T01:29:36;99723.00;;;13.80;49.98
16331;BME280;8275;48.206;16.340;2024-02-04T01:32:05;99718.84;;;13.78;50.48
16331;BME280;8275;48.206;16.340;2024-02-04T01:34:34;99732.56;;;13.73;50.77
16331;BME280;8275;48.206;16.340;2024-02-04T01:37:04;99732.28;;;13.69;50.65
16331;BME280;8275;48.206;16.340;2024-02-04T01:39:33;99737.75;;;13.64;51.45
16331;BME280;8275;48.206;16.340;2024-02-04T01:42:02;99725.34;;;13.62;51.57
16331;BME280;8275;48.206;16.340;2024-02-04T01:44:32;99742.66;;;13.57;51.79
16331;BME280;8275;48.206;16.340;2024-02-04T01:47:00;99727.50;;;13.55;51.59
16331;BME280;8275;48.206;16.340;2024-02-04T01:49:29;99721.44;;;13.53;51.61
16331;BME280;8275;48.206;16.340;2024-02-04T01:51:58;99723.09;;;13.54;51.62
16331;BME280;8275;48.206;16.340;2024-02-04T01:54:28;99725.84;;;13.54;51.71
16331;BME280;8275;48.206;16.340;2024-02-04T01:56:59;99719.50;;;13.53;51.72
16331;BME280;8275;48.206;16.340;2024-02-04T01:59:29;99724.44;;;13.51;51.87
16331;BME280;8275;48.206;16.340;2024-02-04T02:02:00;99726.06;;;13.47;52.59
16331;BME280;8275;48.206;16.340;2024-02-04T02:04:28;99730.75;;;13.47;52.69
16331;BME280;8275;48.206;16.340;2024-02-04T02:06:57;99729.34;;;13.44;53.34
16331;BME280;8275;48.206;16.340;2024-02-04T02:09:28;99724.63;;;13.40;53.30
16331;BME280;8275;48.206;16.340;2024-02-04T02:12:03;99721.84;;;13.34;53.18
16331;BME280;8275;48.206;16.340;2024-02-04T02:14:39;99729.78;;;13.31;53.68
16331;BME280;8275;48.206;16.340;2024-02-04T02:17:12;99730.56;;;13.26;54.41
16331;BME280;8275;48.206;16.340;2024-02-04T02:19:50;99714.84;;;13.22;54.39
16331;BME280;8275;48.206;16.340;2024-02-04T02:22:39;99718.38;;;13.17;54.67
16331;BME280;8275;48.206;16.340;2024-02-04T02:25:17;99708.72;;;13.15;54.93
16331;BME280;8275;48.206;16.340;2024-02-04T02:27:50;99712.84;;;13.12;55.15
16331;BME280;8275;48.206;16.340;2024-02-04T02:30:19;99722.47;;;13.10;55.52
16331;BME280;8275;48.206;16.340;2024-02-04T02:32:49;99723.53;;;13.09;55.64
16331;BME280;8275;48.206;16.340;2024-02-04T02:35:18;99711.97;;;13.07;56.06
16331;BME280;8275;48.206;16.340;2024-02-04T02:37:53;99707.81;;;13.04;56.01
16331;BME280;8275;48.206;16.340;2024-02-04T02:40:30;99703.66;;;13.02;56.22
16331;BME280;8275;48.206;16.340;2024-02-04T02:43:03;99709.97;;;13.02;56.71
16331;BME280;8275;48.206;16.340;2024-02-04T02:45:32;99714.91;;;13.00;57.08
16331;BME280;8275;48.206;16.340;2024-02-04T02:48:02;99695.09;;;12.98;57.04
16331;BME280;8275;48.206;16.340;2024-02-04T02:50:33;99690.41;;;12.99;57.24
16331;BME280;8275;48.206;16.340;2024-02-04T02:53:02;99684.09;;;12.98;57.28
16331;BME280;8275;48.206;16.340;2024-02-04T02:55:32;99684.34;;;12.97;57.41
16331;BME280;8275;48.206;16.340;2024-02-04T02:58:00;99678.00;;;12.96;57.54
16331;BME280;8275;48.206;16.340;2024-02-04T03:00:29;99681.03;;;12.95;57.95
16331;BME280;8275;48.206;16.340;2024-02-04T03:02:57;99687.09;;;12.97;57.93
16331;BME280;8275;48.206;16.340;2024-02-04T03:05:26;99693.44;;;12.97;58.04
16331;BME280;8275;48.206;16.340;2024-02-04T03:07:54;99698.09;;;12.97;58.11
16331;BME280;8275;48.206;16.340;2024-02-04T03:10:23;99681.03;;;12.95;58.71
16331;BME280;8275;48.206;16.340;2024-02-04T03:12:53;99684.63;;;12.95;58.46
16331;BME280;8275;48.206;16.340;2024-02-04T03:15:21;99680.19;;;12.94;58.56
16331;BME280;8275;48.206;16.340;2024-02-04T03:17:50;99672.50;;;12.91;58.55
16331;BME280;8275;48.206;16.340;2024-02-04T03:20:18;99653.47;;;12.90;58.69
16331;BME280;8275;48.206;16.340;2024-02-04T03:22:48;99662.28;;;12.87;58.60
16331;BME280;8275;48.206;16.340;2024-02-04T03:25:16;99671.03;;;12.84;58.94
16331;BME280;8275;48.206;16.340;2024-02-04T03:27:45;99653.97;;;12.82;58.80
16331;BME280;8275;48.206;16.340;2024-02-04T03:30:15;99672.09;;;12.78;58.72
16331;BME280;8275;48.206;16.340;2024-02-04T03:32:44;99664.63;;;12.73;58.97
16331;BME280;8275;48.206;16.340;2024-02-04T03:35:12;99670.06;;;12.68;59.43
16331;BME280;8275;48.206;16.340;2024-02-04T03:37:41;99668.09;;;12.63;59.69
16331;BME280;8275;48.206;16.340;2024-02-04T03:40:11;99677.94;;;12.59;60.15
16331;BME280;8275;48.206;16.340;2024-02-04T03:42:40;99677.38;;;12.57;60.36
16331;BME280;8275;48.206;16.340;2024-02-04T03:45:09;99675.72;;;12.56;60.68
16331;BME280;8275;48.206;16.340;2024-02-04T03:47:39;99680.13;;;12.57;60.57
16331;BME280;8275;48.206;16.340;2024-02-04T03:50:09;99677.94;;;12.59;60.81
16331;BME280;8275;48.206;16.340;2024-02-04T03:52:38;99678.53;;;12.61;61.24
16331;BME280;8275;48.206;16.340;2024-02-04T03:55:06;99673.03;;;12.61;60.91
16331;BME280;8275;48.206;16.340;2024-02-04T03:57:35;99672.78;;;12.63;60.76
16331;BME280;8275;48.206;16.340;2024-02-04T04:00:06;99671.66;;;12.64;60.35
16331;BME280;8275;48.206;16.340;2024-02-04T04:02:39;99669.25;;;12.67;60.11
16331;BME280;8275;48.206;16.340;2024-02-04T04:05:11;99669.81;;;12.69;59.89
16331;BME280;8275;48.206;16.340;2024-02-04T04:07:40;99674.78;;;12.73;59.91
16331;BME280;8275;48.206;16.340;2024-02-04T04:10:09;99687.19;;;12.75;59.67
16331;BME280;8275;48.206;16.340;2024-02-04T04:12:38;99690.50;;;12.77;59.48
16331;BME280;8275;48.206;16.340;2024-02-04T04:15:07;99680.34;;;12.78;59.27
16331;BME280;8275;48.206;16.340;2024-02-04T04:17:36;99680.34;;;12.78;59.00
16331;BME280;8275;48.206;16.340;2024-02-04T04:20:07;99668.25;;;12.79;58.68
16331;BME280;8275;48.206;16.340;2024-02-04T04:22:39;99660.25;;;12.77;58.96
16331;BME280;8275;48.206;16.340;2024-02-04T04:25:09;99672.59;;;12.75;58.77
16331;BME280;8275;48.206;16.340;2024-02-04T04:27:38;99671.22;;;12.72;58.71
16331;BME280;8275;48.206;16.340;2024-02-04T04:30:07;99664.03;;;12.71;58.39
16331;BME280;8275;48.206;16.340;2024-02-04T04:32:44;99638.72;;;12.69;58.38
16331;BME280;8275;48.206;16.340;2024-02-04T04:35:13;99667.56;;;12.66;58.32
16331;BME280;8275;48.206;16.340;2024-02-04T04:37:42;99666.50;;;12.67;58.34
16331;BME280;8275;48.206;16.340;2024-02-04T04:40:11;99665.66;;;12.67;58.36
16331;BME280;8275;48.206;16.340;2024-02-04T04:42:40;99647.25;;;12.67;58.13
16331;BME280;8275;48.206;16.340;2024-02-04T04:45:09;99662.63;;;12.68;57.81
16331;BME280;8275;48.206;16.340;2024-02-04T04:47:38;99663.22;;;12.71;57.93
16331;BME280;8275;48.206;16.340;2024-02-04T04:50:07;99664.63;;;12.73;57.52
16331;BME280;8275;48.206;16.340;2024-02-04T04:52:37;99647.59;;;12.76;57.16
16331;BME280;8275;48.206;16.340;2024-02-04T04:55:06;99644.84;;;12.76;56.95
16331;BME280;8275;48.206;16.340;2024-02-04T04:57:35;99671.56;;;12.81;56.73
16331;BME280;8275;48.206;16.340;2024-02-04T05:00:06;99669.91;;;12.80;56.25
16331;BME280;8275;48.206;16.340;2024-02-04T05:02:37;99674.88;;;12.83;56.47
16331;BME280;8275;48.206;16.340;2024-02-04T05:05:06;99683.94;;;12.83;56.29
16331;BME280;8275;48.206;16.340;2024-02-04T05:07:36;99689.44;;;12.83;56.20
16331;BME280;8275;48.206;16.340;2024-02-04T05:10:06;99691.91;;;12.80;55.80
16331;BME280;8275;48.206;16.340;2024-02-04T05:12:36;99692.47;;;12.82;55.93
16331;BME280;8275;48.206;16.340;2024-02-04T05:15:07;99724.63;;;12.81;55.89
16331;BME280;8275;48.206;16.340;2024-02-04T05:17:36;99696.34;;;12.86;55.72
16331;BME280;8275;48.206;16.340;2024-02-04T05:20:06;99704.66;;;12.91;55.60
16331;BME280;8275;48.206;16.340;2024-02-04T05:22:35;99700.28;;;12.95;55.51
16331;BME280;8275;48.206;16.340;2024-02-04T05:25:06;99678.34;;;13.00;55.41
16331;BME280;8275;48.206;16.340;2024-02-04T05:27:36;99705.03;;;13.04;55.14
16331;BME280;8275;48.206;16.340;2024-02-04T05:30:10;99692.72;;;13.07;55.04
16331;BME280;8275;48.206;16.340;2024-02-04T05:32:39;99681.72;;;13.07;54.98
16331;BME280;8275;48.206;16.340;2024-02-04T05:35:08;99683.31;;;13.03;54.67
16331;BME280;8275;48.206;16.340;2024-02-04T05:37:37;99689.63;;;13.03;54.52
16331;BME280;8275;48.206;16.340;2024-02-04T05:40:08;99700.34;;;13.00;54.75
16331;BME280;8275;48.206;16.340;2024-02-04T05:42:36;99697.84;;;12.98;54.67
16331;BME280;8275;48.206;16.340;2024-02-04T05:45:06;99701.13;;;12.95;54.64
16331;BME280;8275;48.206;16.340;2024-02-04T05:47:35;99707.13;;;12.92;54.59
16331;BME280;8275;48.206;16.340;2024-02-04T05:50:05;99702.97;;;12.90;54.86
16331;BME280;8275;48.206;16.340;2024-02-04T05:52:34;99707.91;;;12.88;54.75
16331;BME280;8275;48.206;16.340;2024-02-04T05:55:03;99704.59;;;12.86;54.67
16331;BME280;8275;48.206;16.340;2024-02-04T05:57:33;99701.28;;;12.84;54.60
16331;BME280;8275;48.206;16.340;2024-02-04T06:00:02;99697.69;;;12.83;54.70
16331;BME280;8275;48.206;16.340;2024-02-04T06:02:31;99696.88;;;12.83;54.63
16331;BME280;8275;48.206;16.340;2024-02-04T06:05:00;99686.69;;;12.83;54.49
16331;BME280;8275;48.206;16.340;2024-02-04T06:07:28;99686.69;;;12.83;54.67
16331;BME280;8275;48.206;16.340;2024-02-04T06:09:57;99702.38;;;12.83;54.42
16331;BME280;8275;48.206;16.340;2024-02-04T06:12:27;99699.63;;;12.83;54.43
16331;BME280;8275;48.206;16.340;2024-02-04T06:14:56;99700.72;;;12.82;54.74
16331;BME280;8275;48.206;16.340;2024-02-04T06:17:25;99696.28;;;12.81;54.60
16331;BME280;8275;48.206;16.340;2024-02-04T06:19:53;99714.47;;;12.82;54.56
16331;BME280;8275;48.206;16.340;2024-02-04T06:22:22;99713.34;;;12.83;54.57
16331;BME280;8275;48.206;16.340;2024-02-04T06:24:52;99717.22;;;12.82;54.42
16331;BME280;8275;48.206;16.340;2024-02-04T06:27:20;99723.78;;;12.81;54.63
16331;BME280;8275;48.206;16.340;2024-02-04T06:29:49;99729.06;;;12.82;54.19
16331;BME280;8275;48.206;16.340;2024-02-04T06:32:18;99707.06;;;12.82;54.26
16331;BME280;8275;48.206;16.340;2024-02-04T06:34:47;99718.63;;;12.84;54.31
16331;BME280;8275;48.206;16.340;2024-02-04T06:37:16;99728.78;;;12.84;54.24
16331;BME280;8275;48.206;16.340;2024-02-04T06:39:45;99738.94;;;12.83;54.30
16331;BME280;8275;48.206;16.340;2024-02-04T06:42:13;99729.34;;;12.86;53.89
16331;BME280;8275;48.206;16.340;2024-02-04T06:44:43;99726.59;;;12.86;53.89
16331;BME280;8275;48.206;16.340;2024-02-04T06:47:12;99729.06;;;12.87;53.83
16331;BME280;8275;48.206;16.340;2024-02-04T06:49:45;99745.34;;;12.89;54.01
16331;BME280;8275;48.206;16.340;2024-02-04T06:52:13;99745.06;;;12.90;53.90
16331;BME280;8275;48.206;16.340;2024-02-04T06:54:42;99761.56;;;12.90;53.99
16331;BME280;8275;48.206;16.340;2024-02-04T06:57:10;99769.53;;;12.92;53.80
16331;BME280;8275;48.206;16.340;2024-02-04T06:59:39;99761.06;;;12.93;53.95
16331;BME280;8275;48.206;16.340;2024-02-04T07:02:07;99770.94;;;12.94;53.75
16331;BME280;8275;48.206;16.340;2024-02-04T07:04:36;99780.88;;;12.95;53.71
16331;BME280;8275;48.206;16.340;2024-02-04T07:07:06;99774.84;;;12.98;53.62
16331;BME280;8275;48.206;16.340;2024-02-04T07:09:34;99770.50;;;13.02;53.68
16331;BME280;8275;48.206;16.340;2024-02-04T07:12:04;99785.13;;;13.08;53.90
16331;BME280;8275;48.206;16.340;2024-02-04T07:14:32;99770.09;;;13.15;53.77
16331;BME280;8275;48.206;16.340;2024-02-04T07:17:01;99776.53;;;13.26;53.58
16331;BME280;8275;48.206;16.340;2024-02-04T07:19:29;99786.78;;;13.35;53.50
16331;BME280;8275;48.206;16.340;2024-02-04T07:21:57;99784.13;;;13.46;53.48
16331;BME280;8275;48.206;16.340;2024-02-04T07:24:27;99780.63;;;13.55;53.43
16331;BME280;8275;48.206;16.340;2024-02-04T07:26:56;99767.75;;;13.66;53.34
16331;BME280;8275;48.206;16.340;2024-02-04T07:29:24;99775.53;;;13.74;52.75
16331;BME280;8275;48.206;16.340;2024-02-04T07:31:53;99789.91;;;13.81;52.64
16331;BME280;8275;48.206;16.340;2024-02-04T07:34:21;99797.66;;;13.89;52.28
16331;BME280;8275;48.206;16.340;2024-02-04T07:36:49;99787.53;;;13.94;52.33
16331;BME280;8275;48.206;16.340;2024-02-04T07:39:19;99791.97;;;14.00;52.11
16331;BME280;8275;48.206;16.340;2024-02-04T07:41:49;99788.41;;;14.05;52.26
16331;BME280;8275;48.206;16.340;2024-02-04T07:44:18;99784.03;;;14.14;52.05
16331;BME280;8275;48.206;16.340;2024-02-04T07:46:46;99795.41;;;14.23;51.98
16331;BME280;8275;48.206;16.340;2024-02-04T07:49:14;99799.00;;;14.28;51.55
16331;BME280;8275;48.206;16.340;2024-02-04T07:51:43;99778.69;;;14.34;51.66
16331;BME280;8275;48.206;16.340;2024-02-04T07:54:11;99772.66;;;14.42;51.68
16331;BME280;8275;48.206;16.340;2024-02-04T07:56:40;99781.50;;;14.49;50.88
16331;BME280;8275;48.206;16.340;2024-02-04T07:59:10;99761.69;;;14.52;50.99
16331;BME280;8275;48.206;16.340;2024-02-04T08:01:38;99779.31;;;14.51;50.83
16331;BME280;8275;48.206;16.340;2024-02-04T08:04:07;99760.53;;;14.48;50.79
16331;BME280;8275;48.206;16.340;2024-02-04T08:06:38;99746.19;;;14.46;50.33
16331;BME280;8275;48.206;16.340;2024-02-04T08:09:06;99766.63;;;14.45;50.28
16331;BME280;8275;48.206;16.340;2024-02-04T08:11:35;99767.16;;;14.47;50.32
16331;BME280;8275;48.206;16.340;2024-02-04T08:14:04;99759.44;;;14.49;50.10
16331;BME280;8275;48.206;16.340;2024-02-04T08:16:33;99758.09;;;14.52;49.75
16331;BME280;8275;48.206;16.340;2024-02-04T08:19:02;99774.34;;;14.53;49.69
16331;BME280;8275;48.206;16.340;2024-02-04T08:21:33;99767.75;;;14.54;49.60
16331;BME280;8275;48.206;16.340;2024-02-04T08:24:02;99770.75;;;14.53;49.51
16331;BME280;8275;48.206;16.340;2024-02-04T08:26:30;99775.47;;;14.57;49.57
16331;BME280;8275;48.206;16.340;2024-02-04T08:28:59;99768.56;;;14.60;49.66
16331;BME280;8275;48.206;16.340;2024-02-04T08:31:33;99760.84;;;14.62;49.63
16331;BME280;8275;48.206;16.340;2024-02-04T08:34:02;99776.03;;;14.64;49.29
16331;BME280;8275;48.206;16.340;2024-02-04T08:36:30;99763.38;;;14.63;48.91
16331;BME280;8275;48.206;16.340;2024-02-04T08:38:59;99767.75;;;14.64;49.25
16331;BME280;8275;48.206;16.340;2024-02-04T08:41:27;99765.31;;;14.68;49.01
16331;BME280;8275;48.206;16.340;2024-02-04T08:43:56;99751.53;;;14.68;48.83
16331;BME280;8275;48.206;16.340;2024-02-04T08:46:28;99739.13;;;14.70;48.47
16331;BME280;8275;48.206;16.340;2024-02-04T08:48:58;99754.56;;;14.71;48.50
16331;BME280;8275;48.206;16.340;2024-02-04T08:51:27;99733.88;;;14.74;48.39
16331;BME280;8275;48.206;16.340;2024-02-04T08:53:57;99762.56;;;14.78;48.36
16331;BME280;8275;48.206;16.340;2024-02-04T08:56:26;99736.38;;;14.81;48.06
16331;BME280;8275;48.206;16.340;2024-02-04T08:58:54;99730.03;;;14.85;47.94
16331;BME280;8275;48.206;16.340;2024-02-04T09:01:23;99709.09;;;14.89;48.18
16331;BME280;8275;48.206;16.340;2024-02-04T09:03:51;99720.41;;;14.98;48.33
16331;BME280;8275;48.206;16.340;2024-02-04T09:06:21;99706.06;;;15.06;47.93
16331;BME280;8275;48.206;16.340;2024-02-04T09:08:50;99695.03;;;15.11;47.75
16331;BME280;8275;48.206;16.340;2024-02-04T09:11:19;99700.84;;;15.14;47.57
16331;BME280;8275;48.206;16.340;2024-02-04T09:13:48;99689.53;;;15.16;47.55
16331;BME280;8275;48.206;16.340;2024-02-04T09:16:16;99686.75;;;15.16;47.36
16331;BME280;8275;48.206;16.340;2024-02-04T09:18:45;99699.72;;;15.20;47.13
16331;BME280;8275;48.206;16.340;2024-02-04T09:21:14;99690.91;;;15.23;46.93
16331;BME280;8275;48.206;16.340;2024-02-04T09:23:44;99715.19;;;15.31;47.27
16331;BME280;8275;48.206;16.340;2024-02-04T09:26:13;99702.75;;;15.39;47.43
16331;BME280;8275;48.206;16.340;2024-02-04T09:28:45;99698.66;;;15.47;47.50
16331;BME280;8275;48.206;16.340;2024-02-04T09:31:14;99701.66;;;15.55;47.14
16331;BME280;8275;48.206;16.340;2024-02-04T09:33:43;99692.25;;;15.61;46.46
16331;BME280;8275;48.206;16.340;2024-02-04T09:36:11;99664.38;;;15.63;46.47
16331;BME280;8275;48.206;16.340;2024-02-04T09:38:40;99675.44;;;15.68;46.30
16331;BME280;8275;48.206;16.340;2024-02-04T09:41:10;99669.06;;;15.72;46.55
16331;BME280;8275;48.206;16.340;2024-02-04T09:43:39;99684.50;;;15.73;45.89
16331;BME280;8275;48.206;16.340;2024-02-04T09:46:08;99675.94;;;15.75;46.10
16331;BME280;8275;48.206;16.340;2024-02-04T09:48:38;99688.34;;;15.82;46.22
16331;BME280;8275;48.206;16.340;2024-02-04T09:51:08;99703.25;;;15.86;45.83
16331;BME280;8275;48.206;16.340;2024-02-04T09:53:41;99670.41;;;15.85;45.47
16331;BME280;8275;48.206;16.340;2024-02-04T09:56:12;99670.09;;;15.86;45.58
16331;BME280;8275;48.206;16.340;2024-02-04T09:58:45;99680.31;;;15.91;45.57
16331;BME280;8275;48.206;16.340;2024-02-04T10:01:14;99669.25;;;15.91;45.74
16331;BME280;8275;48.206;16.340;2024-02-04T10:03:47;99670.91;;;15.97;46.09
16331;BME280;8275;48.206;16.340;2024-02-04T10:06:16;99675.28;;;16.08;45.66
16331;BME280;8275;48.206;16.340;2024-02-04T10:08:45;99666.97;;;16.13;45.34
16331;BME280;8275;48.206;16.340;2024-02-04T10:11:16;99656.16;;;16.16;45.52
16331;BME280;8275;48.206;16.340;2024-02-04T10:13:46;99653.69;;;16.20;45.51
16331;BME280;8275;48.206;16.340;2024-02-04T10:16:15;99663.34;;;16.28;45.79
16331;BME280;8275;48.206;16.340;2024-02-04T10:18:45;99645.31;;;16.35;45.34
16331;BME280;8275;48.206;16.340;2024-02-04T10:21:16;99637.81;;;16.41;44.79
16331;BME280;8275;48.206;16.340;2024-02-04T10:23:45;99636.09;;;16.50;45.73
16331;BME280;8275;48.206;16.340;2024-02-04T10:26:16;99621.94;;;16.61;45.44
16331;BME280;8275;48.206;16.340;2024-02-04T10:28:45;99630.13;;;16.76;44.73
16331;BME280;8275;48.206;16.340;2024-02-04T10:31:15;99619.00;;;16.87;43.94
16331;BME280;8275;48.206;16.340;2024-02-04T10:33:44;99615.06;;;16.93;44.28
16331;BME280;8275;48.206;16.340;2024-02-04T10:36:13;99603.38;;;17.01;44.03
16331;BME280;8275;48.206;16.340;2024-02-04T10:38:41;99611.34;;;17.07;43.65
16331;BME280;8275;48.206;16.340;2024-02-04T10:41:17;99592.50;;;17.09;43.20
16331;BME280;8275;48.206;16.340;2024-02-04T10:43:45;99597.19;;;17.09;42.97
16331;BME280;8275;48.206;16.340;2024-02-04T10:46:19;99585.38;;;17.03;42.59
16331;BME280;8275;48.206;16.340;2024-02-04T10:48:54;99588.19;;;16.98;43.36
16331;BME280;8275;48.206;16.340;2024-02-04T10:51:25;99595.34;;;16.99;43.62
16331;BME280;8275;48.206;16.340;2024-02-04T10:53:55;99586.72;;;17.06;43.77
16331;BME280;8275;48.206;16.340;2024-02-04T10:56:41;99561.00;;;17.05;42.95
16331;BME280;8275;48.206;16.340;2024-02-04T10:59:11;99573.22;;;16.99;42.79
16331;BME280;8275;48.206;16.340;2024-02-04T11:01:40;99558.03;;;16.97;42.96
16331;BME280;8275;48.206;16.340;2024-02-04T11:04:11;99570.44;;;16.99;43.40
16331;BME280;8275;48.206;16.340;2024-02-04T11:06:40;99571.72;;;17.12;43.70
16331;BME280;8275;48.206;16.340;2024-02-04T11:09:10;99563.50;;;17.30;43.24
16331;BME280;8275;48.206;16.340;2024-02-04T11:11:40;99554.22;;;17.45;42.49
16331;BME280;8275;48.206;16.340;2024-02-04T11:14:13;99562.66;;;17.59;42.52
16331;BME280;8275;48.206;16.340;2024-02-04T11:17:14;99569.78;;;17.65;42.25
16331;BME280;8275;48.206;16.340;2024-02-04T11:20:06;99566.72;;;17.66;41.85
16331;BME280;8275;48.206;16.340;2024-02-04T11:23:09;99558.50;;;17.61;42.23
16331;BME280;8275;48.206;16.340;2024-02-04T11:25:45;99552.16;;;17.56;41.68
16331;BME280;8275;48.206;16.340;2024-02-04T11:28:16;99559.97;;;17.48;41.91
16331;BME280;8275;48.206;16.340;2024-02-04T11:30:47;99566.16;;;17.40;42.22
16331;BME280;8275;48.206;16.340;2024-02-04T11:33:19;99562.63;;;17.35;42.10
16331;BME280;8275;48.206;16.340;2024-02-04T11:35:59;99550.00;;;17.24;42.45
16331;BME280;8275;48.206;16.340;2024-02-04T11:38:32;99541.50;;;17.15;42.76
16331;BME280;8275;48.206;16.340;2024-02-04T11:41:02;99563.75;;;17.05;42.62
16331;BME280;8275;48.206;16.340;2024-02-04T11:43:35;99554.72;;;16.95;42.99
16331;BME280;8275;48.206;16.340;2024-02-04T11:46:05;99555.66;;;16.85;43.34
16331;BME280;8275;48.206;16.340;2024-02-04T11:48:34;99549.03;;;16.81;43.36
16331;BME280;8275;48.206;16.340;2024-02-04T11:51:05;99547.44;;;16.75;43.34
16331;BME280;8275;48.206;16.340;2024-02-04T11:53:35;99543.88;;;16.69;43.47
16331;BME280;8275;48.206;16.340;2024-02-04T11:56:06;99568.22;;;16.67;43.66
16331;BME280;8275;48.206;16.340;2024-02-04T11:58:37;99557.75;;;16.64;43.99
16331;BME280;8275;48.206;16.340;2024-02-04T12:01:05;99556.09;;;16.63;44.07
16331;BME280;8275;48.206;16.340;2024-02-04T12:03:39;99560.75;;;16.68;44.26
16331;BME280;8275;48.206;16.340;2024-02-04T12:06:08;99549.13;;;16.71;43.82
16331;BME280;8275;48.206;16.340;2024-02-04T12:08:38;99543.28;;;16.72;43.59
16331;BME280;8275;48.206;16.340;2024-02-04T12:11:08;99548.81;;;16.72;43.68
16331;BME280;8275;48.206;16.340;2024-02-04T12:13:38;99485.19;;;16.72;43.37
16331;BME280;8275;48.206;16.340;2024-02-04T12:16:09;99524.75;;;16.73;43.46
16331;BME280;8275;48.206;16.340;2024-02-04T12:18:48;99505.66;;;16.71;43.33
16331;BME280;8275;48.206;16.340;2024-02-04T12:21:17;99527.56;;;16.68;42.94
16331;BME280;8275;48.206;16.340;2024-02-04T12:23:46;99538.41;;;16.64;43.54
16331;BME280;8275;48.206;16.340;2024-02-04T12:26:15;99541.16;;;16.64;43.50
16331;BME280;8275;48.206;16.340;2024-02-04T12:28:44;99525.09;;;16.66;43.51
16331;BME280;8275;48.206;16.340;2024-02-04T12:31:17;99542.28;;;16.63;43.26
16331;BME280;8275;48.206;16.340;2024-02-04T12:33:56;99534.84;;;16.59;43.26
16331;BME280;8275;48.206;16.340;2024-02-04T12:36:26;99527.59;;;16.63;43.14
16331;BME280;8275;48.206;16.340;2024-02-04T12:38:57;99511.28;;;16.66;43.26
16331;BME280;8275;48.206;16.340;2024-02-04T12:41:28;99546.94;;;16.68;43.11
16331;BME280;8275;48.206;16.340;2024-02-04T12:43:59;99540.34;;;16.64;42.89
16331;BME280;8275;48.206;16.340;2024-02-04T12:46:29;99535.13;;;16.57;42.72
16331;BME280;8275;48.206;16.340;2024-02-04T12:48:58;99518.56;;;16.52;43.17
16331;BME280;8275;48.206;16.340;2024-02-04T12:51:33;99530.19;;;16.49;43.44
16331;BME280;8275;48.206;16.340;2024-02-04T12:54:06;99505.31;;;16.44;43.65
16331;BME280;8275;48.206;16.340;2024-02-04T12:56:44;99503.97;;;16.42;43.71
16331;BME280;8275;48.206;16.340;2024-02-04T12:59:29;99455.34;;;16.36;43.38
16331;BME280;8275;48.206;16.340;2024-02-04T13:01:59;99487.69;;;16.35;43.85
16331;BME280;8275;48.206;16.340;2024-02-04T13:04:34;99474.41;;;16.37;44.01
16331;BME280;8275;48.206;16.340;2024-02-04T13:07:07;99483.81;;;16.41;43.86
16331;BME280;8275;48.206;16.340;2024-02-04T13:09:37;99474.03;;;16.49;43.68
16331;BME280;8275;48.206;16.340;2024-02-04T13:12:08;99460.16;;;16.59;43.54
16331;BME280;8275;48.206;16.340;2024-02-04T13:14:39;99459.25;;;16.68;43.54